sensor_id;sensor_type;location;lat;lon;timestamp;pressure;altitude;pressure_sealevel;temperature;humidity
2761;BME280;15420;48.636;9.798;2022-08-19T00:01:43;96254.75;;;23.48;93.66
2761;BME280;15420;48.636;9.798;2022-08-19T00:04:12;96258.38;;;23.45;93.88
2761;BME280;15420;48.636;9.798;2022-08-19T00:06:44;96255.78;;;23.44;94.23
2761;BME280;15420;48.636;9.798;2022-08-19T00:09:12;96256.72;;;23.43;94.27
2761;BME280;15420;48.636;9.798;2022-08-19T00:11:42;96257.69;;;23.40;94.85
2761;BME280;15420;48.636;9.798;2022-08-19T00:14:13;96254.25;;;23.38;94.97
2761;BME280;15420;48.636;9.798;2022-08-19T00:16:42;96244.72;;;23.36;95.10
2761;BME280;15420;48.636;9.798;2022-08-19T00:19:09;96255.22;;;23.36;94.73
2761;BME280;15420;48.636;9.798;2022-08-19T00:21:36;96250.03;;;23.34;94.63
2761;BME280;15420;48.636;9.798;2022-08-19T00:24:06;96249.22;;;23.32;94.70
2761;BME280;15420;48.636;9.798;2022-08-19T00:26:34;96239.69;;;23.30;93.86
2761;BME280;15420;48.636;9.798;2022-08-19T00:29:00;96236.25;;;23.28;94.04
2761;BME280;15420;48.636;9.798;2022-08-19T00:31:29;96235.41;;;23.27;94.72
2761;BME280;15420;48.636;9.798;2022-08-19T00:33:57;96228.44;;;23.26;94.38
2761;BME280;15420;48.636;9.798;2022-08-19T00:36:23;96229.41;;;23.24;94.28
2761;BME280;15420;48.636;9.798;2022-08-19T00:38:54;96234.66;;;23.24;94.64
2761;BME280;15420;48.636;9.798;2022-08-19T00:41:24;96225.97;;;23.22;94.84
2761;BME280;15420;48.636;9.798;2022-08-19T00:44:21;96238.25;;;23.21;95.11
2761;BME280;15420;48.636;9.798;2022-08-19T00:46:52;96246.25;;;23.18;95.77
2761;BME280;15420;48.636;9.798;2022-08-19T00:49:26;96250.66;;;23.17;95.62
2761;BME280;15420;48.636;9.798;2022-08-19T00:52:35;96262.94;;;23.17;96.13
2761;BME280;15420;48.636;9.798;2022-08-19T00:54:58;96265.69;;;23.14;96.28
2761;BME280;15420;48.636;9.798;2022-08-19T00:57:35;96253.47;;;23.13;95.81
2761;BME280;15420;48.636;9.798;2022-08-19T01:00:09;96252.72;;;23.09;95.76
2761;BME280;15420;48.636;9.798;2022-08-19T01:02:38;96249.28;;;23.07;95.78
2761;BME280;15420;48.636;9.798;2022-08-19T01:05:14;96250.19;;;23.06;95.29
2761;BME280;15420;48.636;9.798;2022-08-19T01:07:47;96246.78;;;23.04;95.39
2761;BME280;15420;48.636;9.798;2022-08-19T01:10:19;96240.81;;;22.99;95.23
2761;BME280;15420;48.636;9.798;2022-08-19T01:12:47;96239.13;;;22.98;95.04
2761;BME280;15420;48.636;9.798;2022-08-19T01:15:17;96241.84;;;22.95;94.90
2761;BME280;15420;48.636;9.798;2022-08-19T01:17:46;96249.78;;;22.94;95.41
2761;BME280;15420;48.636;9.798;2022-08-19T01:20:16;96242.81;;;22.93;95.77
2761;BME280;15420;48.636;9.798;2022-08-19T01:22:49;96250.75;;;22.91;96.09
2761;BME280;15420;48.636;9.798;2022-08-19T01:25:19;96255.16;;;22.91;97.16
2761;BME280;15420;48.636;9.798;2022-08-19T01:27:47;96247.41;;;22.88;97.11
2761;BME280;15420;48.636;9.798;2022-08-19T01:30:23;96252.69;;;22.88;96.46
2761;BME280;15420;48.636;9.798;2022-08-19T01:32:53;96249.25;;;22.86;96.41
2761;BME280;15420;48.636;9.798;2022-08-19T01:35:21;96246.66;;;22.84;96.51
2761;BME280;15420;48.636;9.798;2022-08-19T01:40:17;96244.97;;;22.83;96.30
2761;BME280;15420;48.636;9.798;2022-08-19T01:42:50;96242.34;;;22.83;96.51
2761;BME280;15420;48.636;9.798;2022-08-19T01:45:18;96243.25;;;22.82;96.91
2761;BME280;15420;48.636;9.798;2022-08-19T01:47:44;96251.19;;;22.80;96.52
2761;BME280;15420;48.636;9.798;2022-08-19T01:50:11;96245.06;;;22.80;97.03
2761;BME280;15420;48.636;9.798;2022-08-19T01:52:41;96252.94;;;22.80;96.88
2761;BME280;15420;48.636;9.798;2022-08-19T01:55:13;96256.50;;;22.79;96.35
2761;BME280;15420;48.636;9.798;2022-08-19T01:57:43;96254.78;;;22.76;96.38
2761;BME280;15420;48.636;9.798;2022-08-19T02:00:16;96252.22;;;22.75;96.31
2761;BME280;15420;48.636;9.798;2022-08-19T02:02:45;96248.78;;;22.73;96.19
2761;BME280;15420;48.636;9.798;2022-08-19T02:05:16;96254.03;;;22.73;96.46
2761;BME280;15420;48.636;9.798;2022-08-19T02:07:44;96255.88;;;22.71;96.48
2761;BME280;15420;48.636;9.798;2022-08-19T02:10:18;96248.84;;;22.71;96.53
2761;BME280;15420;48.636;9.798;2022-08-19T02:12:48;96255.13;;;22.67;96.91
2761;BME280;15420;48.636;9.798;2022-08-19T02:15:15;96257.75;;;22.67;97.20
2761;BME280;15420;48.636;9.798;2022-08-19T02:17:42;96272.66;;;22.67;97.58
2761;BME280;15420;48.636;9.798;2022-08-19T02:20:11;96263.91;;;22.66;97.99
2761;BME280;15420;48.636;9.798;2022-08-19T02:22:41;96263.91;;;22.66;97.88
2761;BME280;15420;48.636;9.798;2022-08-19T02:25:10;96257.00;;;22.64;97.65
2761;BME280;15420;48.636;9.798;2022-08-19T02:27:37;96261.44;;;22.62;98.43
2761;BME280;15420;48.636;9.798;2022-08-19T02:30:05;96254.47;;;22.61;98.36
2761;BME280;15420;48.636;9.798;2022-08-19T02:32:31;96247.44;;;22.61;98.15
2761;BME280;15420;48.636;9.798;2022-08-19T02:34:58;96252.75;;;22.60;98.57
2761;BME280;15420;48.636;9.798;2022-08-19T02:37:24;96243.16;;;22.59;98.54
2761;BME280;15420;48.636;9.798;2022-08-19T02:40:09;96247.66;;;22.55;98.37
2761;BME280;15420;48.636;9.798;2022-08-19T02:42:38;96243.31;;;22.54;98.58
2761;BME280;15420;48.636;9.798;2022-08-19T02:45:06;96243.31;;;22.54;98.28
2761;BME280;15420;48.636;9.798;2022-08-19T02:47:35;96229.38;;;22.52;98.38
2761;BME280;15420;48.636;9.798;2022-08-19T02:50:07;96229.44;;;22.50;97.89
2761;BME280;15420;48.636;9.798;2022-08-19T02:52:36;96225.97;;;22.50;97.25
2761;BME280;15420;48.636;9.798;2022-08-19T02:55:03;96237.44;;;22.47;97.99
2761;BME280;15420;48.636;9.798;2022-08-19T02:57:53;96226.97;;;22.46;97.50
2761;BME280;15420;48.636;9.798;2022-08-19T03:00:19;96232.38;;;22.41;97.92
2761;BME280;15420;48.636;9.798;2022-08-19T03:02:51;96242.09;;;22.39;98.00
2761;BME280;15420;48.636;9.798;2022-08-19T03:05:20;96237.00;;;22.35;97.64
2761;BME280;15420;48.636;9.798;2022-08-19T03:07:49;96240.53;;;22.34;97.93
2761;BME280;15420;48.636;9.798;2022-08-19T03:10:15;96235.31;;;22.32;97.51
2761;BME280;15420;48.636;9.798;2022-08-19T03:12:43;96237.16;;;22.30;97.63
2761;BME280;15420;48.636;9.798;2022-08-19T03:15:12;96238.06;;;22.29;97.86
2761;BME280;15420;48.636;9.798;2022-08-19T03:17:40;96237.25;;;22.27;97.73
2761;BME280;15420;48.636;9.798;2022-08-19T03:20:09;96238.22;;;22.25;97.57
2761;BME280;15420;48.636;9.798;2022-08-19T03:22:35;96234.72;;;22.24;97.21
2761;BME280;15420;48.636;9.798;2022-08-19T03:25:04;96238.31;;;22.22;97.21
2761;BME280;15420;48.636;9.798;2022-08-19T03:27:33;96230.53;;;22.18;98.18
2761;BME280;15420;48.636;9.798;2022-08-19T03:30:02;96228.78;;;22.19;98.01
2761;BME280;15420;48.636;9.798;2022-08-19T03:32:28;96239.28;;;22.19;97.97
2761;BME280;15420;48.636;9.798;2022-08-19T03:34:56;96233.28;;;22.15;97.83
2761;BME280;15420;48.636;9.798;2022-08-19T03:37:22;96236.81;;;22.14;97.92
2761;BME280;15420;48.636;9.798;2022-08-19T03:39:49;96237.72;;;22.13;97.75
2761;BME280;15420;48.636;9.798;2022-08-19T03:42:15;96236.00;;;22.12;98.26
2761;BME280;15420;48.636;9.798;2022-08-19T03:44:43;96234.34;;;22.10;98.48
2761;BME280;15420;48.636;9.798;2022-08-19T03:47:10;96237.81;;;22.10;98.98
2761;BME280;15420;48.636;9.798;2022-08-19T03:49:42;96236.97;;;22.10;98.69
2761;BME280;15420;48.636;9.798;2022-08-19T03:52:08;96236.19;;;22.06;98.76
2761;BME280;15420;48.636;9.798;2022-08-19T03:54:35;96237.91;;;22.07;99.44
2761;BME280;15420;48.636;9.798;2022-08-19T03:57:02;96240.59;;;22.06;99.26
2761;BME280;15420;48.636;9.798;2022-08-19T03:59:35;96240.66;;;22.04;99.28
2761;BME280;15420;48.636;9.798;2022-08-19T04:02:05;96242.34;;;22.05;99.53
2761;BME280;15420;48.636;9.798;2022-08-19T04:04:37;96245.03;;;22.04;100.00
2761;BME280;15420;48.636;9.798;2022-08-19T04:07:04;96242.41;;;22.04;100.00
2761;BME280;15420;48.636;9.798;2022-08-19T04:09:31;96244.13;;;22.05;100.00
2761;BME280;15420;48.636;9.798;2022-08-19T04:11:58;96238.06;;;22.03;100.00
2761;BME280;15420;48.636;9.798;2022-08-19T04:14:31;96233.63;;;22.05;100.00
2761;BME280;15420;48.636;9.798;2022-08-19T04:16:59;96223.22;;;22.02;100.00
2761;BME280;15420;48.636;9.798;2022-08-19T04:19:26;96220.63;;;22.00;100.00
2761;BME280;15420;48.636;9.798;2022-08-19T04:21:56;96211.78;;;22.04;100.00
2761;BME280;15420;48.636;9.798;2022-08-19T04:24:22;96217.88;;;22.05;100.00
2761;BME280;15420;48.636;9.798;2022-08-19T04:26:52;96221.38;;;22.05;100.00
2761;BME280;15420;48.636;9.798;2022-08-19T04:29:24;96225.81;;;22.03;100.00
2761;BME280;15420;48.636;9.798;2022-08-19T04:31:53;96229.34;;;22.01;100.00
2761;BME280;15420;48.636;9.798;2022-08-19T04:34:21;96226.72;;;22.01;100.00
2761;BME280;15420;48.636;9.798;2022-08-19T04:36:53;96230.25;;;22.00;100.00
2761;BME280;15420;48.636;9.798;2022-08-19T04:39:24;96225.94;;;21.99;100.00
2761;BME280;15420;48.636;9.798;2022-08-19T04:42:11;96227.69;;;21.98;100.00
2761;BME280;15420;48.636;9.798;2022-08-19T04:44:55;96100.00;;;21.19;100.00
2761;BME280;15420;48.636;9.798;2022-08-19T04:47:26;96225.94;;;21.99;100.00
2761;BME280;15420;48.636;9.798;2022-08-19T04:49:53;96232.94;;;21.98;100.00
2761;BME280;15420;48.636;9.798;2022-08-19T04:52:21;96234.66;;;21.99;100.00
2761;BME280;15420;48.636;9.798;2022-08-19T04:54:47;96240.81;;;21.98;100.00
2761;BME280;15420;48.636;9.798;2022-08-19T04:57:14;96249.53;;;21.99;100.00
2761;BME280;15420;48.636;9.798;2022-08-19T04:59:43;96243.38;;;22.00;100.00
2761;BME280;15420;48.636;9.798;2022-08-19T05:02:13;96260.91;;;21.99;100.00
2761;BME280;15420;48.636;9.798;2022-08-19T05:04:40;96262.59;;;22.00;100.00
2761;BME280;15420;48.636;9.798;2022-08-19T05:07:07;96275.72;;;22.00;100.00
2761;BME280;15420;48.636;9.798;2022-08-19T05:09:34;96276.59;;;22.01;100.00
2761;BME280;15420;48.636;9.798;2022-08-19T05:12:03;96286.22;;;22.02;100.00
2761;BME280;15420;48.636;9.798;2022-08-19T05:14:32;96289.69;;;22.02;100.00
2761;BME280;15420;48.636;9.798;2022-08-19T05:17:02;96290.56;;;22.01;100.00
2761;BME280;15420;48.636;9.798;2022-08-19T05:19:28;96289.69;;;22.02;100.00
2761;BME280;15420;48.636;9.798;2022-08-19T05:22:13;96293.19;;;22.03;100.00
2761;BME280;15420;48.636;9.798;2022-08-19T05:25:00;96304.53;;;22.03;100.00
2761;BME280;15420;48.636;9.798;2022-08-19T05:27:29;96302.72;;;22.05;100.00
2761;BME280;15420;48.636;9.798;2022-08-19T05:29:55;96308.78;;;22.07;100.00
2761;BME280;15420;48.636;9.798;2022-08-19T05:32:21;96318.38;;;22.08;100.00
2761;BME280;15420;48.636;9.798;2022-08-19T05:34:49;96325.34;;;22.09;100.00
2761;BME280;15420;48.636;9.798;2022-08-19T05:37:16;96324.44;;;22.10;100.00
2761;BME280;15420;48.636;9.798;2022-08-19T05:39:45;96316.56;;;22.10;100.00
2761;BME280;15420;48.636;9.798;2022-08-19T05:42:12;96316.56;;;22.10;100.00
2761;BME280;15420;48.636;9.798;2022-08-19T05:44:43;96326.16;;;22.11;100.00
2761;BME280;15420;48.636;9.798;2022-08-19T05:47:13;96324.38;;;22.12;100.00
2761;BME280;15420;48.636;9.798;2022-08-19T05:49:40;96326.16;;;22.11;100.00
2761;BME280;15420;48.636;9.798;2022-08-19T05:52:10;96328.78;;;22.11;100.00
2761;BME280;15420;48.636;9.798;2022-08-19T05:54:39;96325.25;;;22.12;100.00
2761;BME280;15420;48.636;9.798;2022-08-19T05:57:08;96328.78;;;22.11;100.00
2761;BME280;15420;48.636;9.798;2022-08-19T05:59:36;96328.78;;;22.11;100.00
2761;BME280;15420;48.636;9.798;2022-08-19T06:02:07;96333.09;;;22.12;100.00
2761;BME280;15420;48.636;9.798;2022-08-19T06:04:33;96337.44;;;22.13;100.00
2761;BME280;15420;48.636;9.798;2022-08-19T06:07:00;96327.88;;;22.12;100.00
2761;BME280;15420;48.636;9.798;2022-08-19T06:09:27;96329.56;;;22.13;100.00
2761;BME280;15420;48.636;9.798;2022-08-19T06:11:57;96320.84;;;22.13;100.00
2761;BME280;15420;48.636;9.798;2022-08-19T06:14:31;96326.16;;;22.11;100.00
2761;BME280;15420;48.636;9.798;2022-08-19T06:17:00;96331.44;;;22.10;100.00
2761;BME280;15420;48.636;9.798;2022-08-19T06:19:30;96334.97;;;22.09;100.00
2761;BME280;15420;48.636;9.798;2022-08-19T06:22:00;96328.00;;;22.08;100.00
2761;BME280;15420;48.636;9.798;2022-08-19T06:24:27;96320.13;;;22.08;100.00
2761;BME280;15420;48.636;9.798;2022-08-19T06:26:58;96324.53;;;22.07;100.00
2761;BME280;15420;48.636;9.798;2022-08-19T06:29:28;96322.84;;;22.05;100.00
2761;BME280;15420;48.636;9.798;2022-08-19T06:31:58;96324.56;;;22.06;100.00
2761;BME280;15420;48.636;9.798;2022-08-19T06:34:26;96326.34;;;22.05;100.00
2761;BME280;15420;48.636;9.798;2022-08-19T06:36:57;96325.47;;;22.05;100.00
2761;BME280;15420;48.636;9.798;2022-08-19T06:39:30;96329.06;;;22.02;100.00
2761;BME280;15420;48.636;9.798;2022-08-19T06:42:02;96328.22;;;22.00;100.00
2761;BME280;15420;48.636;9.798;2022-08-19T06:44:34;96323.06;;;21.97;100.00
2761;BME280;15420;48.636;9.798;2022-08-19T06:47:06;96325.69;;;21.97;100.00
2761;BME280;15420;48.636;9.798;2022-08-19T06:49:35;96329.25;;;21.95;100.00
2761;BME280;15420;48.636;9.798;2022-08-19T06:52:02;96328.44;;;21.93;100.00
2761;BME280;15420;48.636;9.798;2022-08-19T06:54:29;96324.06;;;21.93;100.00
2761;BME280;15420;48.636;9.798;2022-08-19T06:57:01;96324.06;;;21.93;100.00
2761;BME280;15420;48.636;9.798;2022-08-19T06:59:28;96331.06;;;21.93;100.00
2761;BME280;15420;48.636;9.798;2022-08-19T07:02:03;96334.59;;;21.92;100.00
2761;BME280;15420;48.636;9.798;2022-08-19T07:04:32;96329.34;;;21.92;100.00
2761;BME280;15420;48.636;9.798;2022-08-19T07:07:08;96336.41;;;21.90;100.00
2761;BME280;15420;48.636;9.798;2022-08-19T07:09:40;96331.25;;;21.86;100.00
2761;BME280;15420;48.636;9.798;2022-08-19T07:12:11;96331.31;;;21.85;100.00
2761;BME280;15420;48.636;9.798;2022-08-19T07:14:39;96328.78;;;21.83;100.00
2761;BME280;15420;48.636;9.798;2022-08-19T07:17:12;96334.84;;;21.84;100.00
2761;BME280;15420;48.636;9.798;2022-08-19T07:19:41;96330.56;;;21.81;100.00
2761;BME280;15420;48.636;9.798;2022-08-19T07:22:11;96319.31;;;21.78;100.00
2761;BME280;15420;48.636;9.798;2022-08-19T07:24:40;96321.09;;;21.77;100.00
2761;BME280;15420;48.636;9.798;2022-08-19T07:27:13;96321.94;;;21.78;100.00
2761;BME280;15420;48.636;9.798;2022-08-19T07:29:39;96315.88;;;21.76;100.00
2761;BME280;15420;48.636;9.798;2022-08-19T07:32:06;96321.09;;;21.77;100.00
2761;BME280;15420;48.636;9.798;2022-08-19T07:34:37;96325.47;;;21.77;100.00
2761;BME280;15420;48.636;9.798;2022-08-19T07:37:05;96329.81;;;21.78;100.00
2761;BME280;15420;48.636;9.798;2022-08-19T07:39:33;96337.63;;;21.79;100.00
2761;BME280;15420;48.636;9.798;2022-08-19T07:42:06;96335.00;;;21.79;100.00
2761;BME280;15420;48.636;9.798;2022-08-19T07:44:36;96346.38;;;21.80;100.00
2761;BME280;15420;48.636;9.798;2022-08-19T07:47:04;96340.25;;;21.79;100.00
2761;BME280;15420;48.636;9.798;2022-08-19T07:49:32;96351.75;;;21.75;100.00
2761;BME280;15420;48.636;9.798;2022-08-19T07:52:02;96348.31;;;21.73;100.00
2761;BME280;15420;48.636;9.798;2022-08-19T07:54:31;96350.06;;;21.73;100.00
2761;BME280;15420;48.636;9.798;2022-08-19T07:57:00;96354.50;;;21.71;100.00
2761;BME280;15420;48.636;9.798;2022-08-19T07:59:27;96358.84;;;21.72;100.00
2761;BME280;15420;48.636;9.798;2022-08-19T08:01:57;96360.66;;;21.70;100.00
2761;BME280;15420;48.636;9.798;2022-08-19T08:07:10;96358.13;;;21.67;100.00
2761;BME280;15420;48.636;9.798;2022-08-19T08:10:07;96361.66;;;21.66;100.00
2761;BME280;15420;48.636;9.798;2022-08-19T08:12:41;96366.94;;;21.64;100.00
2761;BME280;15420;48.636;9.798;2022-08-19T08:15:13;96360.84;;;21.64;100.00
2761;BME280;15420;48.636;9.798;2022-08-19T08:17:47;96358.31;;;21.61;100.00
2761;BME280;15420;48.636;9.798;2022-08-19T08:20:17;96358.31;;;21.61;100.00
2761;BME280;15420;48.636;9.798;2022-08-19T08:22:45;96347.81;;;21.61;100.00
2761;BME280;15420;48.636;9.798;2022-08-19T08:25:29;96351.34;;;21.60;100.00
2761;BME280;15420;48.636;9.798;2022-08-19T08:27:58;96346.06;;;21.61;100.00
2761;BME280;15420;48.636;9.798;2022-08-19T08:30:27;96356.50;;;21.63;100.00
2761;BME280;15420;48.636;9.798;2022-08-19T08:32:53;96354.69;;;21.65;100.00
2761;BME280;15420;48.636;9.798;2022-08-19T08:35:27;96353.78;;;21.66;100.00
2761;BME280;15420;48.636;9.798;2022-08-19T08:37:56;96356.22;;;21.72;100.00
2761;BME280;15420;48.636;9.798;2022-08-19T08:43:05;96355.13;;;21.79;100.00
2761;BME280;15420;48.636;9.798;2022-08-19T08:45:38;96358.63;;;21.79;100.00
2761;BME280;15420;48.636;9.798;2022-08-19T08:50:57;96360.34;;;21.80;100.00
2761;BME280;15420;48.636;9.798;2022-08-19T08:53:25;96361.06;;;21.84;100.00
2761;BME280;15420;48.636;9.798;2022-08-19T08:55:52;96360.16;;;21.85;100.00
2761;BME280;15420;48.636;9.798;2022-08-19T08:58:29;96361.78;;;21.89;100.00
2761;BME280;15420;48.636;9.798;2022-08-19T09:00:57;96358.25;;;21.90;100.00
2761;BME280;15420;48.636;9.798;2022-08-19T09:03:30;96367.81;;;21.93;100.00
2761;BME280;15420;48.636;9.798;2022-08-19T09:06:21;96377.31;;;21.97;100.00
2761;BME280;15420;48.636;9.798;2022-08-19T09:16:33;96372.81;;;22.00;100.00
2761;BME280;15420;48.636;9.798;2022-08-19T09:19:04;96373.66;;;22.02;100.00
2761;BME280;15420;48.636;9.798;2022-08-19T09:21:31;96381.41;;;22.07;100.00
2761;BME280;15420;48.636;9.798;2022-08-19T09:23:58;96380.59;;;22.05;99.98
2761;BME280;15420;48.636;9.798;2022-08-19T09:26:25;96371.75;;;22.07;100.00
2761;BME280;15420;48.636;9.798;2022-08-19T09:28:52;96375.16;;;22.11;100.00
2761;BME280;15420;48.636;9.798;2022-08-19T09:31:22;96375.91;;;22.14;100.00
2761;BME280;15420;48.636;9.798;2022-08-19T09:33:50;96372.28;;;22.18;100.00
2761;BME280;15420;48.636;9.798;2022-08-19T09:36:24;96379.16;;;22.23;100.00
2761;BME280;15420;48.636;9.798;2022-08-19T09:38:52;96375.59;;;22.25;99.61
2761;BME280;15420;48.636;9.798;2022-08-19T09:41:21;96372.84;;;22.28;100.00
2761;BME280;15420;48.636;9.798;2022-08-19T09:43:49;96380.63;;;22.31;99.64
2761;BME280;15420;48.636;9.798;2022-08-19T09:46:24;96384.06;;;22.33;99.45
2761;BME280;15420;48.636;9.798;2022-08-19T09:48:54;96374.53;;;22.31;97.80
2761;BME280;15420;48.636;9.798;2022-08-19T09:51:23;96381.44;;;22.33;98.44
2761;BME280;15420;48.636;9.798;2022-08-19T09:53:50;96370.91;;;22.35;98.86
2761;BME280;15420;48.636;9.798;2022-08-19T09:56:21;96369.78;;;22.42;98.77
2761;BME280;15420;48.636;9.798;2022-08-19T09:58:50;96382.88;;;22.43;98.17
2761;BME280;15420;48.636;9.798;2022-08-19T10:01:19;96384.50;;;22.47;98.24
2761;BME280;15420;48.636;9.798;2022-08-19T10:03:49;96381.75;;;22.50;98.44
2761;BME280;15420;48.636;9.798;2022-08-19T10:06:16;96373.75;;;22.55;97.84
2761;BME280;15420;48.636;9.798;2022-08-19T10:08:42;96376.22;;;22.60;97.87
2761;BME280;15420;48.636;9.798;2022-08-19T10:11:09;96381.31;;;22.64;97.33
2761;BME280;15420;48.636;9.798;2022-08-19T10:13:36;96380.31;;;22.68;97.19
2761;BME280;15420;48.636;9.798;2022-08-19T10:16:15;96384.53;;;22.72;96.58
2761;BME280;15420;48.636;9.798;2022-08-19T10:18:42;96381.81;;;22.75;97.19
2761;BME280;15420;48.636;9.798;2022-08-19T10:21:15;96385.22;;;22.79;96.88
2761;BME280;15420;48.636;9.798;2022-08-19T10:23:44;96379.88;;;22.82;96.67
2761;BME280;15420;48.636;9.798;2022-08-19T10:26:12;96377.19;;;22.83;96.88
2761;BME280;15420;48.636;9.798;2022-08-19T10:28:39;96391.94;;;22.88;96.58
2761;BME280;15420;48.636;9.798;2022-08-19T10:31:11;96391.09;;;22.87;95.94
2761;BME280;15420;48.636;9.798;2022-08-19T10:33:38;96390.28;;;22.85;95.56
2761;BME280;15420;48.636;9.798;2022-08-19T10:36:08;96392.06;;;22.85;94.88
2761;BME280;15420;48.636;9.798;2022-08-19T10:38:35;96395.69;;;22.80;95.01
2761;BME280;15420;48.636;9.798;2022-08-19T10:41:19;96399.19;;;22.81;95.06
2761;BME280;15420;48.636;9.798;2022-08-19T10:43:45;96394.84;;;22.78;94.61
2761;BME280;15420;48.636;9.798;2022-08-19T10:46:14;96392.38;;;22.74;94.28
2761;BME280;15420;48.636;9.798;2022-08-19T10:48:41;96398.59;;;22.71;93.66
2761;BME280;15420;48.636;9.798;2022-08-19T10:51:08;96399.56;;;22.69;94.48
2761;BME280;15420;48.636;9.798;2022-08-19T10:53:53;96391.81;;;22.64;94.67
2761;BME280;15420;48.636;9.798;2022-08-19T10:56:19;96395.34;;;22.63;93.92
2761;BME280;15420;48.636;9.798;2022-08-19T10:59:04;96396.38;;;22.59;94.41
2761;BME280;15420;48.636;9.798;2022-08-19T11:01:35;96400.75;;;22.59;95.01
2761;BME280;15420;48.636;9.798;2022-08-19T11:04:03;96398.13;;;22.59;96.26
2761;BME280;15420;48.636;9.798;2022-08-19T11:06:35;96391.34;;;22.51;96.95
2761;BME280;15420;48.636;9.798;2022-08-19T11:09:05;96396.66;;;22.50;96.45
2761;BME280;15420;48.636;9.798;2022-08-19T11:11:34;96391.50;;;22.47;97.24
2761;BME280;15420;48.636;9.798;2022-08-19T11:14:08;96400.41;;;22.43;97.60
2761;BME280;15420;48.636;9.798;2022-08-19T11:16:36;96389.13;;;22.39;98.58
2761;BME280;15420;48.636;9.798;2022-08-19T11:19:05;96398.06;;;22.34;99.14
2761;BME280;15420;48.636;9.798;2022-08-19T11:21:36;96399.81;;;22.33;99.12
2761;BME280;15420;48.636;9.798;2022-08-19T11:24:06;96393.91;;;22.27;99.14
2761;BME280;15420;48.636;9.798;2022-08-19T11:26:33;96395.81;;;22.22;100.00
2761;BME280;15420;48.636;9.798;2022-08-19T11:29:00;96392.38;;;22.19;100.00
2761;BME280;15420;48.636;9.798;2022-08-19T11:31:30;96402.16;;;22.14;100.00
2761;BME280;15420;48.636;9.798;2022-08-19T11:34:02;96397.06;;;22.10;100.00
2761;BME280;15420;48.636;9.798;2022-08-19T11:36:32;96398.00;;;22.07;100.00
2761;BME280;15420;48.636;9.798;2022-08-19T11:39:03;96412.03;;;22.06;100.00
2761;BME280;15420;48.636;9.798;2022-08-19T11:41:32;96403.41;;;22.01;100.00
2761;BME280;15420;48.636;9.798;2022-08-19T11:43:58;96406.13;;;21.98;100.00
2761;BME280;15420;48.636;9.798;2022-08-19T11:46:28;96396.56;;;21.96;100.00
2761;BME280;15420;48.636;9.798;2022-08-19T11:48:59;96407.03;;;21.97;100.00
2761;BME280;15420;48.636;9.798;2022-08-19T11:51:27;96400.09;;;21.95;100.00
2761;BME280;15420;48.636;9.798;2022-08-19T11:53:57;96404.50;;;21.94;100.00
2761;BME280;15420;48.636;9.798;2022-08-19T11:56:26;96410.66;;;21.93;100.00
2761;BME280;15420;48.636;9.798;2022-08-19T11:58:56;96404.50;;;21.94;100.00
2761;BME280;15420;48.636;9.798;2022-08-19T12:01:26;96406.25;;;21.94;100.00
2761;BME280;15420;48.636;9.798;2022-08-19T12:03:54;96399.28;;;21.93;100.00
2761;BME280;15420;48.636;9.798;2022-08-19T12:06:27;96401.91;;;21.93;100.00
2761;BME280;15420;48.636;9.798;2022-08-19T12:08:56;96408.97;;;21.91;100.00
2761;BME280;15420;48.636;9.798;2022-08-19T12:11:25;96403.72;;;21.91;100.00
2761;BME280;15420;48.636;9.798;2022-08-19T12:13:53;96405.59;;;21.87;100.00
2761;BME280;15420;48.636;9.798;2022-08-19T12:16:25;96403.78;;;21.89;100.00
2761;BME280;15420;48.636;9.798;2022-08-19T12:18:53;96406.44;;;21.87;100.00
2761;BME280;15420;48.636;9.798;2022-08-19T12:21:26;96410.88;;;21.85;100.00
2761;BME280;15420;48.636;9.798;2022-08-19T12:23:57;96406.50;;;21.86;100.00
2761;BME280;15420;48.636;9.798;2022-08-19T12:26:25;96406.50;;;21.86;100.00
2761;BME280;15420;48.636;9.798;2022-08-19T12:28:54;96410.88;;;21.85;100.00
2761;BME280;15420;48.636;9.798;2022-08-19T12:31:20;96410.00;;;21.85;100.00
2761;BME280;15420;48.636;9.798;2022-08-19T12:33:47;96405.66;;;21.84;100.00
2761;BME280;15420;48.636;9.798;2022-08-19T12:36:15;96416.16;;;21.84;100.00
2761;BME280;15420;48.636;9.798;2022-08-19T12:38:44;96413.63;;;21.82;100.00
2761;BME280;15420;48.636;9.798;2022-08-19T12:41:12;96415.44;;;21.80;100.00
2761;BME280;15420;48.636;9.798;2022-08-19T12:43:39;96423.25;;;21.82;100.00
2761;BME280;15420;48.636;9.798;2022-08-19T12:46:07;96418.06;;;21.80;100.00
2761;BME280;15420;48.636;9.798;2022-08-19T12:48:37;96416.38;;;21.78;100.00
2761;BME280;15420;48.636;9.798;2022-08-19T12:51:08;96415.59;;;21.74;100.00
2761;BME280;15420;48.636;9.798;2022-08-19T12:53:35;96420.84;;;21.74;100.00
2761;BME280;15420;48.636;9.798;2022-08-19T12:56:02;96432.25;;;21.73;100.00
2761;BME280;15420;48.636;9.798;2022-08-19T12:58:29;96432.25;;;21.73;100.00
2761;BME280;15420;48.636;9.798;2022-08-19T13:00:55;96429.66;;;21.72;100.00
2761;BME280;15420;48.636;9.798;2022-08-19T13:03:23;96437.59;;;21.70;100.00
2761;BME280;15420;48.636;9.798;2022-08-19T13:05:55;96435.91;;;21.68;100.00
2761;BME280;15420;48.636;9.798;2022-08-19T13:08:21;96434.16;;;21.68;100.00
2761;BME280;15420;48.636;9.798;2022-08-19T13:10:47;96435.03;;;21.67;100.00
2761;BME280;15420;48.636;9.798;2022-08-19T13:13:13;96444.72;;;21.65;100.00
2761;BME280;15420;48.636;9.798;2022-08-19T13:15:42;96450.00;;;21.64;100.00
2761;BME280;15420;48.636;9.798;2022-08-19T13:18:11;96446.63;;;21.60;100.00
2761;BME280;15420;48.636;9.798;2022-08-19T13:20:39;96452.75;;;21.59;100.00
2761;BME280;15420;48.636;9.798;2022-08-19T13:23:09;96447.56;;;21.58;100.00
2761;BME280;15420;48.636;9.798;2022-08-19T13:25:36;96446.66;;;21.59;100.00
2761;BME280;15420;48.636;9.798;2022-08-19T13:28:05;96447.56;;;21.58;100.00
2761;BME280;15420;48.636;9.798;2022-08-19T13:30:32;96440.50;;;21.60;100.00
2761;BME280;15420;48.636;9.798;2022-08-19T13:33:17;96437.94;;;21.58;100.00
2761;BME280;15420;48.636;9.798;2022-08-19T13:35:58;96445.84;;;21.57;100.00
2761;BME280;15420;48.636;9.798;2022-08-19T13:38:27;96441.50;;;21.56;100.00